sensor_id;sensor_type;location;lat;lon;timestamp;P1;durP1;ratioP1;P2;durP2;ratioP2
26040;SDS011;13816;53.628;9.950;2022-12-18T00:01:52;16.53;;;12.33;;
26040;SDS011;13816;53.628;9.950;2022-12-18T00:04:22;18.13;;;12.00;;
26040;SDS011;13816;53.628;9.950;2022-12-18T00:06:49;20.07;;;11.67;;
26040;SDS011;13816;53.628;9.950;2022-12-18T00:09:16;29.40;;;12.40;;
26040;SDS011;13816;53.628;9.950;2022-12-18T00:11:42;17.27;;;11.30;;
26040;SDS011;13816;53.628;9.950;2022-12-18T00:14:09;19.63;;;12.10;;
26040;SDS011;13816;53.628;9.950;2022-12-18T00:16:36;21.20;;;11.50;;
26040;SDS011;13816;53.628;9.950;2022-12-18T00:19:02;19.23;;;12.60;;
26040;SDS011;13816;53.628;9.950;2022-12-18T00:21:30;16.07;;;10.83;;
26040;SDS011;13816;53.628;9.950;2022-12-18T00:23:56;18.70;;;11.60;;
26040;SDS011;13816;53.628;9.950;2022-12-18T00:26:24;22.40;;;12.07;;
26040;SDS011;13816;53.628;9.950;2022-12-18T00:28:55;17.27;;;11.63;;
26040;SDS011;13816;53.628;9.950;2022-12-18T00:31:22;18.40;;;11.70;;
26040;SDS011;13816;53.628;9.950;2022-12-18T00:33:51;18.03;;;11.10;;
26040;SDS011;13816;53.628;9.950;2022-12-18T00:36:19;18.20;;;10.77;;
26040;SDS011;13816;53.628;9.950;2022-12-18T00:38:45;19.57;;;11.80;;
26040;SDS011;13816;53.628;9.950;2022-12-18T00:41:12;18.03;;;12.53;;
26040;SDS011;13816;53.628;9.950;2022-12-18T00:43:39;20.30;;;12.73;;
26040;SDS011;13816;53.628;9.950;2022-12-18T00:46:05;18.13;;;11.83;;
26040;SDS011;13816;53.628;9.950;2022-12-18T00:48:31;16.00;;;11.37;;
26040;SDS011;13816;53.628;9.950;2022-12-18T00:50:57;19.50;;;13.50;;
26040;SDS011;13816;53.628;9.950;2022-12-18T00:53:24;21.57;;;11.67;;
26040;SDS011;13816;53.628;9.950;2022-12-18T00:55:50;17.60;;;11.13;;
26040;SDS011;13816;53.628;9.950;2022-12-18T00:58:16;21.93;;;12.00;;
26040;SDS011;13816;53.628;9.950;2022-12-18T01:00:42;16.97;;;11.10;;
26040;SDS011;13816;53.628;9.950;2022-12-18T01:03:10;16.30;;;10.77;;
26040;SDS011;13816;53.628;9.950;2022-12-18T01:05:39;16.97;;;10.67;;
26040;SDS011;13816;53.628;9.950;2022-12-18T01:08:05;15.60;;;11.03;;
26040;SDS011;13816;53.628;9.950;2022-12-18T01:10:31;19.50;;;11.90;;
26040;SDS011;13816;53.628;9.950;2022-12-18T01:12:58;16.07;;;11.80;;
26040;SDS011;13816;53.628;9.950;2022-12-18T01:15:24;21.90;;;13.53;;
26040;SDS011;13816;53.628;9.950;2022-12-18T01:17:51;16.07;;;10.53;;
26040;SDS011;13816;53.628;9.950;2022-12-18T01:20:17;19.73;;;12.93;;
26040;SDS011;13816;53.628;9.950;2022-12-18T01:22:44;21.60;;;11.57;;
26040;SDS011;13816;53.628;9.950;2022-12-18T01:25:10;17.53;;;12.30;;
26040;SDS011;13816;53.628;9.950;2022-12-18T01:27:36;17.90;;;10.53;;
26040;SDS011;13816;53.628;9.950;2022-12-18T01:30:02;18.97;;;10.70;;
26040;SDS011;13816;53.628;9.950;2022-12-18T01:32:29;14.53;;;9.80;;
26040;SDS011;13816;53.628;9.950;2022-12-18T01:34:55;15.20;;;10.67;;
26040;SDS011;13816;53.628;9.950;2022-12-18T01:37:21;14.27;;;10.47;;
26040;SDS011;13816;53.628;9.950;2022-12-18T01:39:48;15.30;;;11.27;;
26040;SDS011;13816;53.628;9.950;2022-12-18T01:42:15;25.67;;;12.10;;
26040;SDS011;13816;53.628;9.950;2022-12-18T01:47:43;18.67;;;10.70;;
26040;SDS011;13816;53.628;9.950;2022-12-18T01:52:43;20.60;;;12.63;;
26040;SDS011;13816;53.628;9.950;2022-12-18T01:55:10;15.17;;;11.17;;
26040;SDS011;13816;53.628;9.950;2022-12-18T01:57:37;14.97;;;10.70;;
26040;SDS011;13816;53.628;9.950;2022-12-18T02:00:06;19.23;;;11.93;;
26040;SDS011;13816;53.628;9.950;2022-12-18T02:02:38;16.70;;;10.73;;
26040;SDS011;13816;53.628;9.950;2022-12-18T02:05:04;15.33;;;10.60;;
26040;SDS011;13816;53.628;9.950;2022-12-18T02:07:37;16.63;;;11.20;;
26040;SDS011;13816;53.628;9.950;2022-12-18T02:10:14;15.40;;;9.87;;
26040;SDS011;13816;53.628;9.950;2022-12-18T02:12:45;12.90;;;9.70;;
26040;SDS011;13816;53.628;9.950;2022-12-18T02:17:51;13.57;;;9.60;;
26040;SDS011;13816;53.628;9.950;2022-12-18T02:20:28;12.60;;;9.90;;
26040;SDS011;13816;53.628;9.950;2022-12-18T02:27:51;19.67;;;10.00;;
26040;SDS011;13816;53.628;9.950;2022-12-18T02:30:19;18.90;;;10.80;;
26040;SDS011;13816;53.628;9.950;2022-12-18T02:32:47;14.23;;;10.23;;
26040;SDS011;13816;53.628;9.950;2022-12-18T02:35:16;13.93;;;9.77;;
26040;SDS011;13816;53.628;9.950;2022-12-18T02:37:45;18.80;;;10.03;;
26040;SDS011;13816;53.628;9.950;2022-12-18T02:40:13;11.40;;;9.23;;
26040;SDS011;13816;53.628;9.950;2022-12-18T02:42:40;16.93;;;11.73;;
26040;SDS011;13816;53.628;9.950;2022-12-18T02:45:09;14.23;;;10.63;;
26040;SDS011;13816;53.628;9.950;2022-12-18T02:47:37;19.37;;;9.70;;
26040;SDS011;13816;53.628;9.950;2022-12-18T02:50:13;13.70;;;9.13;;
26040;SDS011;13816;53.628;9.950;2022-12-18T02:57:58;12.97;;;9.17;;
26040;SDS011;13816;53.628;9.950;2022-12-18T03:05:35;18.70;;;10.13;;
26040;SDS011;13816;53.628;9.950;2022-12-18T03:08:06;15.90;;;11.33;;
26040;SDS011;13816;53.628;9.950;2022-12-18T03:10:38;16.43;;;10.40;;
26040;SDS011;13816;53.628;9.950;2022-12-18T03:13:09;18.53;;;9.97;;
26040;SDS011;13816;53.628;9.950;2022-12-18T03:15:48;11.63;;;8.70;;
26040;SDS011;13816;53.628;9.950;2022-12-18T03:18:20;13.87;;;9.97;;
26040;SDS011;13816;53.628;9.950;2022-12-18T03:20:47;16.80;;;11.00;;
26040;SDS011;13816;53.628;9.950;2022-12-18T03:23:20;14.57;;;9.30;;
26040;SDS011;13816;53.628;9.950;2022-12-18T03:25:48;15.20;;;9.97;;
26040;SDS011;13816;53.628;9.950;2022-12-18T03:28:16;14.47;;;10.07;;
26040;SDS011;13816;53.628;9.950;2022-12-18T03:30:51;20.30;;;10.80;;
26040;SDS011;13816;53.628;9.950;2022-12-18T03:33:21;19.13;;;9.57;;
26040;SDS011;13816;53.628;9.950;2022-12-18T03:35:50;14.23;;;10.27;;
26040;SDS011;13816;53.628;9.950;2022-12-18T03:38:17;12.97;;;9.40;;
26040;SDS011;13816;53.628;9.950;2022-12-18T03:43:36;17.13;;;9.73;;
26040;SDS011;13816;53.628;9.950;2022-12-18T03:46:08;12.67;;;9.13;;
26040;SDS011;13816;53.628;9.950;2022-12-18T03:48:38;15.53;;;10.73;;
26040;SDS011;13816;53.628;9.950;2022-12-18T03:51:11;13.93;;;10.13;;
26040;SDS011;13816;53.628;9.950;2022-12-18T03:53:46;13.43;;;8.90;;
26040;SDS011;13816;53.628;9.950;2022-12-18T03:56:16;12.87;;;10.27;;
26040;SDS011;13816;53.628;9.950;2022-12-18T03:58:43;14.00;;;9.40;;
26040;SDS011;13816;53.628;9.950;2022-12-18T04:01:20;14.77;;;9.37;;
26040;SDS011;13816;53.628;9.950;2022-12-18T04:03:48;12.40;;;9.00;;
26040;SDS011;13816;53.628;9.950;2022-12-18T04:06:17;13.57;;;9.30;;
26040;SDS011;13816;53.628;9.950;2022-12-18T04:08:43;12.73;;;9.63;;
26040;SDS011;13816;53.628;9.950;2022-12-18T04:11:13;12.73;;;9.50;;
26040;SDS011;13816;53.628;9.950;2022-12-18T04:13:42;17.40;;;9.57;;
26040;SDS011;13816;53.628;9.950;2022-12-18T04:16:15;20.90;;;9.87;;
26040;SDS011;13816;53.628;9.950;2022-12-18T04:18:43;17.00;;;9.30;;
26040;SDS011;13816;53.628;9.950;2022-12-18T04:21:10;13.40;;;9.43;;
26040;SDS011;13816;53.628;9.950;2022-12-18T04:23:36;17.00;;;9.50;;
26040;SDS011;13816;53.628;9.950;2022-12-18T04:26:02;11.70;;;8.83;;
26040;SDS011;13816;53.628;9.950;2022-12-18T04:28:49;17.60;;;10.00;;
26040;SDS011;13816;53.628;9.950;2022-12-18T04:31:17;12.77;;;8.77;;
26040;SDS011;13816;53.628;9.950;2022-12-18T04:33:44;13.93;;;9.70;;
26040;SDS011;13816;53.628;9.950;2022-12-18T04:36:10;14.10;;;9.27;;
26040;SDS011;13816;53.628;9.950;2022-12-18T04:38:38;14.57;;;9.87;;
26040;SDS011;13816;53.628;9.950;2022-12-18T04:41:09;11.40;;;8.97;;
26040;SDS011;13816;53.628;9.950;2022-12-18T04:43:39;16.40;;;10.83;;
26040;SDS011;13816;53.628;9.950;2022-12-18T04:46:06;16.33;;;9.80;;
26040;SDS011;13816;53.628;9.950;2022-12-18T04:48:33;13.60;;;10.67;;
26040;SDS011;13816;53.628;9.950;2022-12-18T04:51:01;14.50;;;9.63;;
26040;SDS011;13816;53.628;9.950;2022-12-18T04:53:27;13.63;;;9.40;;
26040;SDS011;13816;53.628;9.950;2022-12-18T04:56:03;16.33;;;9.53;;
26040;SDS011;13816;53.628;9.950;2022-12-18T04:58:30;12.87;;;9.00;;
26040;SDS011;13816;53.628;9.950;2022-12-18T05:00:56;15.83;;;8.90;;
26040;SDS011;13816;53.628;9.950;2022-12-18T05:03:22;20.60;;;10.40;;
26040;SDS011;13816;53.628;9.950;2022-12-18T05:05:51;13.57;;;10.90;;
26040;SDS011;13816;53.628;9.950;2022-12-18T05:08:18;12.10;;;9.33;;
26040;SDS011;13816;53.628;9.950;2022-12-18T05:10:44;14.67;;;10.57;;
26040;SDS011;13816;53.628;9.950;2022-12-18T05:13:10;16.07;;;10.63;;
26040;SDS011;13816;53.628;9.950;2022-12-18T05:15:36;14.27;;;9.37;;
26040;SDS011;13816;53.628;9.950;2022-12-18T05:18:03;16.30;;;10.70;;
26040;SDS011;13816;53.628;9.950;2022-12-18T05:20:29;19.23;;;10.77;;
26040;SDS011;13816;53.628;9.950;2022-12-18T05:22:55;23.60;;;11.67;;
26040;SDS011;13816;53.628;9.950;2022-12-18T05:25:22;12.73;;;9.93;;
26040;SDS011;13816;53.628;9.950;2022-12-18T05:27:48;14.03;;;9.63;;
26040;SDS011;13816;53.628;9.950;2022-12-18T05:30:15;13.60;;;9.27;;
26040;SDS011;13816;53.628;9.950;2022-12-18T05:32:41;14.37;;;9.67;;
26040;SDS011;13816;53.628;9.950;2022-12-18T05:35:08;13.30;;;9.10;;
26040;SDS011;13816;53.628;9.950;2022-12-18T05:37:35;14.13;;;8.97;;
26040;SDS011;13816;53.628;9.950;2022-12-18T05:40:02;13.10;;;9.80;;
26040;SDS011;13816;53.628;9.950;2022-12-18T05:42:28;15.00;;;8.73;;
26040;SDS011;13816;53.628;9.950;2022-12-18T05:44:54;15.83;;;9.97;;
26040;SDS011;13816;53.628;9.950;2022-12-18T05:47:20;19.00;;;8.87;;
26040;SDS011;13816;53.628;9.950;2022-12-18T05:49:46;15.20;;;9.30;;
26040;SDS011;13816;53.628;9.950;2022-12-18T05:52:12;13.30;;;9.30;;
26040;SDS011;13816;53.628;9.950;2022-12-18T05:54:38;18.13;;;9.50;;
26040;SDS011;13816;53.628;9.950;2022-12-18T05:57:05;13.47;;;9.40;;
26040;SDS011;13816;53.628;9.950;2022-12-18T05:59:31;15.47;;;9.07;;
26040;SDS011;13816;53.628;9.950;2022-12-18T06:01:57;13.77;;;8.37;;
26040;SDS011;13816;53.628;9.950;2022-12-18T06:04:23;14.33;;;8.57;;
26040;SDS011;13816;53.628;9.950;2022-12-18T06:06:49;16.43;;;9.37;;
26040;SDS011;13816;53.628;9.950;2022-12-18T06:09:15;14.63;;;9.37;;
26040;SDS011;13816;53.628;9.950;2022-12-18T06:11:41;13.17;;;8.73;;
26040;SDS011;13816;53.628;9.950;2022-12-18T06:14:08;11.60;;;8.47;;
26040;SDS011;13816;53.628;9.950;2022-12-18T06:16:35;13.70;;;9.13;;
26040;SDS011;13816;53.628;9.950;2022-12-18T06:19:02;14.77;;;9.60;;
26040;SDS011;13816;53.628;9.950;2022-12-18T06:21:29;15.60;;;9.13;;
26040;SDS011;13816;53.628;9.950;2022-12-18T06:23:56;14.23;;;9.40;;
26040;SDS011;13816;53.628;9.950;2022-12-18T06:26:22;14.40;;;9.60;;
26040;SDS011;13816;53.628;9.950;2022-12-18T06:28:48;11.60;;;8.50;;
26040;SDS011;13816;53.628;9.950;2022-12-18T06:31:14;14.27;;;9.47;;
26040;SDS011;13816;53.628;9.950;2022-12-18T06:33:41;14.63;;;9.33;;
26040;SDS011;13816;53.628;9.950;2022-12-18T06:36:08;13.47;;;9.03;;
26040;SDS011;13816;53.628;9.950;2022-12-18T06:38:35;13.00;;;8.97;;
26040;SDS011;13816;53.628;9.950;2022-12-18T06:41:08;14.13;;;9.60;;
26040;SDS011;13816;53.628;9.950;2022-12-18T06:43:34;14.00;;;10.03;;
26040;SDS011;13816;53.628;9.950;2022-12-18T06:46:03;16.00;;;9.73;;
26040;SDS011;13816;53.628;9.950;2022-12-18T06:48:33;16.33;;;8.00;;
26040;SDS011;13816;53.628;9.950;2022-12-18T06:50:59;14.87;;;9.80;;
26040;SDS011;13816;53.628;9.950;2022-12-18T06:53:25;11.90;;;8.93;;
26040;SDS011;13816;53.628;9.950;2022-12-18T06:55:51;18.40;;;9.53;;
26040;SDS011;13816;53.628;9.950;2022-12-18T06:58:17;12.17;;;9.13;;
26040;SDS011;13816;53.628;9.950;2022-12-18T07:00:43;19.97;;;9.43;;
26040;SDS011;13816;53.628;9.950;2022-12-18T07:03:10;12.60;;;9.50;;
26040;SDS011;13816;53.628;9.950;2022-12-18T07:05:39;19.13;;;10.27;;
26040;SDS011;13816;53.628;9.950;2022-12-18T07:08:05;12.20;;;8.40;;
26040;SDS011;13816;53.628;9.950;2022-12-18T07:10:32;15.77;;;9.33;;
26040;SDS011;13816;53.628;9.950;2022-12-18T07:12:58;18.77;;;10.67;;
26040;SDS011;13816;53.628;9.950;2022-12-18T07:15:24;12.13;;;8.70;;
26040;SDS011;13816;53.628;9.950;2022-12-18T07:17:50;15.37;;;10.20;;
26040;SDS011;13816;53.628;9.950;2022-12-18T07:20:16;15.20;;;9.80;;
26040;SDS011;13816;53.628;9.950;2022-12-18T07:22:42;15.43;;;10.33;;
26040;SDS011;13816;53.628;9.950;2022-12-18T07:25:08;19.00;;;11.63;;
26040;SDS011;13816;53.628;9.950;2022-12-18T07:27:35;17.00;;;11.30;;
26040;SDS011;13816;53.628;9.950;2022-12-18T07:30:01;15.67;;;9.80;;
26040;SDS011;13816;53.628;9.950;2022-12-18T07:32:27;20.97;;;11.00;;
26040;SDS011;13816;53.628;9.950;2022-12-18T07:34:53;18.73;;;12.83;;
26040;SDS011;13816;53.628;9.950;2022-12-18T07:37:19;17.77;;;13.13;;
26040;SDS011;13816;53.628;9.950;2022-12-18T07:39:48;20.90;;;12.47;;
26040;SDS011;13816;53.628;9.950;2022-12-18T07:42:14;21.23;;;11.73;;
26040;SDS011;13816;53.628;9.950;2022-12-18T07:44:55;16.13;;;11.17;;
26040;SDS011;13816;53.628;9.950;2022-12-18T07:47:23;18.07;;;11.30;;
26040;SDS011;13816;53.628;9.950;2022-12-18T07:49:49;19.03;;;11.10;;
26040;SDS011;13816;53.628;9.950;2022-12-18T07:52:15;16.60;;;10.83;;
26040;SDS011;13816;53.628;9.950;2022-12-18T07:54:41;15.27;;;10.67;;
26040;SDS011;13816;53.628;9.950;2022-12-18T07:57:08;16.70;;;11.13;;
26040;SDS011;13816;53.628;9.950;2022-12-18T07:59:34;15.13;;;10.50;;
26040;SDS011;13816;53.628;9.950;2022-12-18T08:02:00;14.17;;;10.60;;
26040;SDS011;13816;53.628;9.950;2022-12-18T08:04:29;17.03;;;10.20;;
26040;SDS011;13816;53.628;9.950;2022-12-18T08:06:55;15.93;;;10.93;;
26040;SDS011;13816;53.628;9.950;2022-12-18T08:09:22;22.63;;;11.30;;
26040;SDS011;13816;53.628;9.950;2022-12-18T08:11:48;19.03;;;11.40;;
26040;SDS011;13816;53.628;9.950;2022-12-18T08:14:14;16.07;;;10.80;;
26040;SDS011;13816;53.628;9.950;2022-12-18T08:16:40;20.33;;;12.90;;
26040;SDS011;13816;53.628;9.950;2022-12-18T08:19:07;16.67;;;12.30;;
26040;SDS011;13816;53.628;9.950;2022-12-18T08:21:35;18.13;;;12.17;;
26040;SDS011;13816;53.628;9.950;2022-12-18T08:24:05;18.57;;;12.70;;
26040;SDS011;13816;53.628;9.950;2022-12-18T08:26:31;18.90;;;11.87;;
26040;SDS011;13816;53.628;9.950;2022-12-18T08:28:58;14.63;;;10.27;;
26040;SDS011;13816;53.628;9.950;2022-12-18T08:31:26;17.83;;;11.97;;
26040;SDS011;13816;53.628;9.950;2022-12-18T08:33:52;25.33;;;14.60;;
26040;SDS011;13816;53.628;9.950;2022-12-18T08:36:19;17.60;;;12.53;;
26040;SDS011;13816;53.628;9.950;2022-12-18T08:38:45;15.80;;;11.13;;
26040;SDS011;13816;53.628;9.950;2022-12-18T08:41:12;21.87;;;11.67;;
26040;SDS011;13816;53.628;9.950;2022-12-18T08:43:39;18.00;;;12.13;;
26040;SDS011;13816;53.628;9.950;2022-12-18T08:46:24;17.40;;;11.70;;
26040;SDS011;13816;53.628;9.950;2022-12-18T08:48:51;24.20;;;12.53;;
26040;SDS011;13816;53.628;9.950;2022-12-18T08:51:18;15.80;;;10.73;;
26040;SDS011;13816;53.628;9.950;2022-12-18T08:53:44;15.60;;;10.70;;
26040;SDS011;13816;53.628;9.950;2022-12-18T08:56:11;14.10;;;11.07;;
26040;SDS011;13816;53.628;9.950;2022-12-18T08:58:38;18.90;;;11.20;;
26040;SDS011;13816;53.628;9.950;2022-12-18T09:01:05;16.53;;;11.30;;
26040;SDS011;13816;53.628;9.950;2022-12-18T09:03:31;17.63;;;10.80;;
26040;SDS011;13816;53.628;9.950;2022-12-18T09:05:58;24.63;;;12.20;;
26040;SDS011;13816;53.628;9.950;2022-12-18T09:08:24;20.50;;;12.87;;
26040;SDS011;13816;53.628;9.950;2022-12-18T09:10:51;16.70;;;12.20;;
26040;SDS011;13816;53.628;9.950;2022-12-18T09:13:18;15.57;;;11.60;;
26040;SDS011;13816;53.628;9.950;2022-12-18T09:15:45;19.90;;;11.70;;
26040;SDS011;13816;53.628;9.950;2022-12-18T09:18:12;16.57;;;11.37;;
26040;SDS011;13816;53.628;9.950;2022-12-18T09:20:38;18.00;;;12.17;;
26040;SDS011;13816;53.628;9.950;2022-12-18T09:23:05;16.63;;;11.67;;
26040;SDS011;13816;53.628;9.950;2022-12-18T09:25:32;19.60;;;12.90;;
26040;SDS011;13816;53.628;9.950;2022-12-18T09:28:13;21.57;;;12.07;;
26040;SDS011;13816;53.628;9.950;2022-12-18T09:30:42;30.40;;;13.00;;
26040;SDS011;13816;53.628;9.950;2022-12-18T09:33:13;15.33;;;11.00;;
26040;SDS011;13816;53.628;9.950;2022-12-18T09:35:40;13.50;;;10.90;;
26040;SDS011;13816;53.628;9.950;2022-12-18T09:38:08;16.83;;;10.80;;
26040;SDS011;13816;53.628;9.950;2022-12-18T09:40:46;14.17;;;10.63;;
26040;SDS011;13816;53.628;9.950;2022-12-18T09:43:17;15.10;;;11.50;;
26040;SDS011;13816;53.628;9.950;2022-12-18T09:45:50;15.37;;;11.10;;
26040;SDS011;13816;53.628;9.950;2022-12-18T09:48:30;19.30;;;11.83;;
26040;SDS011;13816;53.628;9.950;2022-12-18T09:51:03;16.27;;;12.10;;
26040;SDS011;13816;53.628;9.950;2022-12-18T09:53:44;16.93;;;11.83;;
26040;SDS011;13816;53.628;9.950;2022-12-18T09:56:16;18.43;;;12.10;;
26040;SDS011;13816;53.628;9.950;2022-12-18T09:58:58;18.27;;;11.30;;
26040;SDS011;13816;53.628;9.950;2022-12-18T10:01:25;18.02;;;11.20;;
26040;SDS011;13816;53.628;9.950;2022-12-18T10:03:52;19.07;;;12.70;;
26040;SDS011;13816;53.628;9.950;2022-12-18T10:14:04;14.83;;;10.00;;
26040;SDS011;13816;53.628;9.950;2022-12-18T10:25:01;13.90;;;10.23;;
26040;SDS011;13816;53.628;9.950;2022-12-18T10:27:31;18.00;;;10.70;;
26040;SDS011;13816;53.628;9.950;2022-12-18T10:30:00;15.27;;;10.53;;
26040;SDS011;13816;53.628;9.950;2022-12-18T10:32:28;16.43;;;11.20;;
26040;SDS011;13816;53.628;9.950;2022-12-18T10:34:57;15.60;;;10.57;;
26040;SDS011;13816;53.628;9.950;2022-12-18T10:37:28;20.40;;;11.40;;
26040;SDS011;13816;53.628;9.950;2022-12-18T10:40:13;15.10;;;9.90;;
26040;SDS011;13816;53.628;9.950;2022-12-18T10:42:41;19.30;;;11.33;;
26040;SDS011;13816;53.628;9.950;2022-12-18T10:45:13;15.13;;;10.97;;
26040;SDS011;13816;53.628;9.950;2022-12-18T10:47:43;19.57;;;11.83;;
26040;SDS011;13816;53.628;9.950;2022-12-18T10:50:24;15.07;;;10.60;;
26040;SDS011;13816;53.628;9.950;2022-12-18T10:52:58;17.20;;;9.80;;
26040;SDS011;13816;53.628;9.950;2022-12-18T10:55:31;19.00;;;11.67;;
26040;SDS011;13816;53.628;9.950;2022-12-18T11:03:41;12.97;;;9.30;;
26040;SDS011;13816;53.628;9.950;2022-12-18T11:06:11;19.07;;;10.90;;
26040;SDS011;13816;53.628;9.950;2022-12-18T11:08:42;15.87;;;10.17;;
26040;SDS011;13816;53.628;9.950;2022-12-18T11:11:21;18.13;;;11.63;;
26040;SDS011;13816;53.628;9.950;2022-12-18T11:13:58;21.37;;;12.13;;
26040;SDS011;13816;53.628;9.950;2022-12-18T11:16:28;21.53;;;11.10;;
26040;SDS011;13816;53.628;9.950;2022-12-18T11:19:19;13.40;;;10.40;;
26040;SDS011;13816;53.628;9.950;2022-12-18T11:22:20;16.67;;;11.23;;
26040;SDS011;13816;53.628;9.950;2022-12-18T11:24:54;16.33;;;10.73;;
26040;SDS011;13816;53.628;9.950;2022-12-18T11:27:21;19.10;;;11.20;;
26040;SDS011;13816;53.628;9.950;2022-12-18T11:29:47;17.67;;;11.67;;
26040;SDS011;13816;53.628;9.950;2022-12-18T11:35:17;15.00;;;11.00;;
26040;SDS011;13816;53.628;9.950;2022-12-18T11:37:50;16.93;;;11.33;;
26040;SDS011;13816;53.628;9.950;2022-12-18T11:40:25;15.23;;;9.87;;
26040;SDS011;13816;53.628;9.950;2022-12-18T11:43:02;13.63;;;10.33;;
26040;SDS011;13816;53.628;9.950;2022-12-18T11:49:11;16.83;;;10.97;;
26040;SDS011;13816;53.628;9.950;2022-12-18T11:51:43;18.50;;;10.77;;
26040;SDS011;13816;53.628;9.950;2022-12-18T11:54:17;19.43;;;11.87;;
26040;SDS011;13816;53.628;9.950;2022-12-18T11:56:47;17.43;;;10.27;;
26040;SDS011;13816;53.628;9.950;2022-12-18T11:59:34;19.40;;;11.47;;
26040;SDS011;13816;53.628;9.950;2022-12-18T12:11:20;19.50;;;11.80;;
26040;SDS011;13816;53.628;9.950;2022-12-18T12:14:06;19.37;;;10.77;;
26040;SDS011;13816;53.628;9.950;2022-12-18T12:19:22;18.63;;;11.57;;
26040;SDS011;13816;53.628;9.950;2022-12-18T12:40:36;19.07;;;12.50;;
26040;SDS011;13816;53.628;9.950;2022-12-18T12:43:05;21.63;;;13.83;;
26040;SDS011;13816;53.628;9.950;2022-12-18T12:46:08;21.93;;;13.67;;
26040;SDS011;13816;53.628;9.950;2022-12-18T12:48:43;20.03;;;12.73;;
26040;SDS011;13816;53.628;9.950;2022-12-18T12:51:27;19.27;;;11.97;;
26040;SDS011;13816;53.628;9.950;2022-12-18T12:53:59;20.90;;;12.60;;
26040;SDS011;13816;53.628;9.950;2022-12-18T12:56:37;18.43;;;12.07;;
26040;SDS011;13816;53.628;9.950;2022-12-18T13:10:36;18.97;;;12.87;;
26040;SDS011;13816;53.628;9.950;2022-12-18T13:13:08;19.77;;;12.47;;
26040;SDS011;13816;53.628;9.950;2022-12-18T13:15:45;23.33;;;14.17;;
26040;SDS011;13816;53.628;9.950;2022-12-18T13:21:20;21.57;;;12.73;;
26040;SDS011;13816;53.628;9.950;2022-12-18T13:23:59;16.23;;;12.17;;
26040;SDS011;13816;53.628;9.950;2022-12-18T13:26:49;24.80;;;13.50;;
26040;SDS011;13816;53.628;9.950;2022-12-18T13:32:15;21.80;;;12.80;;
26040;SDS011;13816;53.628;9.950;2022-12-18T13:37:59;23.33;;;13.73;;
26040;SDS011;13816;53.628;9.950;2022-12-18T13:43:24;20.87;;;13.40;;
26040;SDS011;13816;53.628;9.950;2022-12-18T13:46:05;23.57;;;15.30;;
26040;SDS011;13816;53.628;9.950;2022-12-18T13:52:20;20.90;;;13.23;;
26040;SDS011;13816;53.628;9.950;2022-12-18T13:54:52;27.90;;;14.40;;
26040;SDS011;13816;53.628;9.950;2022-12-18T13:59:58;26.97;;;15.30;;
26040;SDS011;13816;53.628;9.950;2022-12-18T14:02:30;28.77;;;16.43;;
26040;SDS011;13816;53.628;9.950;2022-12-18T14:05:01;28.20;;;15.03;;
26040;SDS011;13816;53.628;9.950;2022-12-18T14:07:28;28.50;;;14.07;;
26040;SDS011;13816;53.628;9.950;2022-12-18T14:10:11;25.23;;;14.60;;
26040;SDS011;13816;53.628;9.950;2022-12-18T14:12:38;24.37;;;14.50;;
26040;SDS011;13816;53.628;9.950;2022-12-18T14:15:33;23.37;;;15.30;;
26040;SDS011;13816;53.628;9.950;2022-12-18T14:21:00;24.83;;;15.10;;
26040;SDS011;13816;53.628;9.950;2022-12-18T14:23:31;26.33;;;15.23;;
26040;SDS011;13816;53.628;9.950;2022-12-18T14:26:02;29.20;;;15.40;;
26040;SDS011;13816;53.628;9.950;2022-12-18T14:28:28;27.23;;;15.33;;
26040;SDS011;13816;53.628;9.950;2022-12-18T14:30:55;30.80;;;16.80;;
26040;SDS011;13816;53.628;9.950;2022-12-18T14:33:26;26.30;;;16.73;;
26040;SDS011;13816;53.628;9.950;2022-12-18T14:36:04;23.00;;;14.87;;
26040;SDS011;13816;53.628;9.950;2022-12-18T14:41:15;27.47;;;15.90;;
26040;SDS011;13816;53.628;9.950;2022-12-18T14:43:46;30.37;;;15.50;;
26040;SDS011;13816;53.628;9.950;2022-12-18T14:48:51;25.50;;;15.73;;
26040;SDS011;13816;53.628;9.950;2022-12-18T14:51:41;29.07;;;14.40;;
26040;SDS011;13816;53.628;9.950;2022-12-18T14:54:18;25.17;;;15.97;;
26040;SDS011;13816;53.628;9.950;2022-12-18T14:56:56;35.47;;;17.10;;
26040;SDS011;13816;53.628;9.950;2022-12-18T14:59:33;30.63;;;15.77;;
26040;SDS011;13816;53.628;9.950;2022-12-18T15:02:23;31.93;;;17.63;;
26040;SDS011;13816;53.628;9.950;2022-12-18T15:07:41;30.57;;;17.00;;
26040;SDS011;13816;53.628;9.950;2022-12-18T15:10:31;34.67;;;17.87;;
26040;SDS011;13816;53.628;9.950;2022-12-18T15:13:22;36.73;;;17.47;;
26040;SDS011;13816;53.628;9.950;2022-12-18T15:20:09;25.93;;;16.43;;
26040;SDS011;13816;53.628;9.950;2022-12-18T15:22:46;35.23;;;17.53;;
26040;SDS011;13816;53.628;9.950;2022-12-18T15:25:37;30.47;;;17.20;;
26040;SDS011;13816;53.628;9.950;2022-12-18T15:31:39;36.50;;;17.17;;
26040;SDS011;13816;53.628;9.950;2022-12-18T15:34:45;29.27;;;17.23;;
26040;SDS011;13816;53.628;9.950;2022-12-18T15:37:37;33.90;;;18.13;;
26040;SDS011;13816;53.628;9.950;2022-12-18T15:40:21;30.00;;;17.13;;
26040;SDS011;13816;53.628;9.950;2022-12-18T15:43:37;33.77;;;18.90;;
26040;SDS011;13816;53.628;9.950;2022-12-18T15:46:39;32.67;;;16.43;;
26040;SDS011;13816;53.628;9.950;2022-12-18T15:49:35;29.70;;;17.07;;
26040;SDS011;13816;53.628;9.950;2022-12-18T15:52:31;32.37;;;16.73;;
26040;SDS011;13816;53.628;9.950;2022-12-18T15:55:23;34.77;;;17.57;;
26040;SDS011;13816;53.628;9.950;2022-12-18T15:58:08;29.97;;;16.80;;
26040;SDS011;13816;53.628;9.950;2022-12-18T16:00:40;32.37;;;18.47;;
26040;SDS011;13816;53.628;9.950;2022-12-18T16:03:21;35.30;;;17.40;;
26040;SDS011;13816;53.628;9.950;2022-12-18T16:05:54;38.43;;;22.50;;
26040;SDS011;13816;53.628;9.950;2022-12-18T16:08:53;33.70;;;17.83;;
26040;SDS011;13816;53.628;9.950;2022-12-18T16:11:27;31.13;;;16.50;;
26040;SDS011;13816;53.628;9.950;2022-12-18T16:14:22;36.47;;;17.77;;
26040;SDS011;13816;53.628;9.950;2022-12-18T16:16:56;26.60;;;14.43;;
26040;SDS011;13816;53.628;9.950;2022-12-18T16:19:27;33.90;;;16.97;;
26040;SDS011;13816;53.628;9.950;2022-12-18T16:21:58;30.23;;;15.80;;
26040;SDS011;13816;53.628;9.950;2022-12-18T16:24:30;27.33;;;15.23;;
26040;SDS011;13816;53.628;9.950;2022-12-18T16:26:58;29.20;;;16.00;;
26040;SDS011;13816;53.628;9.950;2022-12-18T16:29:33;28.10;;;15.83;;
26040;SDS011;13816;53.628;9.950;2022-12-18T16:32:00;29.70;;;15.83;;
26040;SDS011;13816;53.628;9.950;2022-12-18T16:34:32;28.67;;;15.07;;
26040;SDS011;13816;53.628;9.950;2022-12-18T16:37:04;29.00;;;15.80;;
26040;SDS011;13816;53.628;9.950;2022-12-18T16:39:37;28.93;;;16.00;;
26040;SDS011;13816;53.628;9.950;2022-12-18T16:42:23;31.37;;;16.53;;
26040;SDS011;13816;53.628;9.950;2022-12-18T16:44:58;37.60;;;17.63;;
26040;SDS011;13816;53.628;9.950;2022-12-18T16:47:48;33.80;;;17.03;;
26040;SDS011;13816;53.628;9.950;2022-12-18T16:50:22;33.00;;;17.17;;
26040;SDS011;13816;53.628;9.950;2022-12-18T16:53:05;35.37;;;17.27;;
26040;SDS011;13816;53.628;9.950;2022-12-18T16:55:35;34.10;;;16.63;;
26040;SDS011;13816;53.628;9.950;2022-12-18T16:58:02;30.90;;;17.30;;
26040;SDS011;13816;53.628;9.950;2022-12-18T17:00:30;29.43;;;15.10;;
26040;SDS011;13816;53.628;9.950;2022-12-18T17:03:01;27.87;;;17.10;;